Time;durP1;ratioP1;P1;durP2;ratioP2;P2;SDS_P1;SDS_P2;PMS_P1;PMS_P2;Temp;Humidity;BMP_temperature;BMP_pressure;BME280_temperature;BME280_humidity;BME280_pressure;Samples;Min_cycle;Max_cycle;Signal;HPM_P1;HPM_P2
2023/01/18 00:00:47;;;;;;;14.50;13.10;;;1.60;99.90;;;;;;5048342;28;20215;-74
2023/01/18 00:03:14;;;;;;;13.30;12.10;;;1.50;99.90;;;;;;5042952;28;20202;-74
2023/01/18 00:05:43;;;;;;;12.75;11.65;;;1.40;99.90;;;;;;5038744;28;20227;-74
2023/01/18 00:08:15;;;;;;;11.85;10.85;;;1.50;99.90;;;;;;5045679;28;20214;-74
2023/01/18 00:10:44;;;;;;;11.90;10.88;;;1.50;99.90;;;;;;5044304;28;20226;-73
2023/01/18 00:13:13;;;;;;;10.95;9.95;;;1.60;99.90;;;;;;5044171;28;20200;-74
2023/01/18 00:15:40;;;;;;;11.02;10.13;;;1.60;99.90;;;;;;5042842;28;20280;-74
2023/01/18 00:18:07;;;;;;;11.80;10.77;;;1.70;99.90;;;;;;5029651;28;20198;-73
2023/01/18 00:20:34;;;;;;;12.18;11.05;;;1.70;99.90;;;;;;5041916;28;20289;-73
2023/01/18 00:23:02;;;;;;;11.98;10.90;;;1.60;99.90;;;;;;5045659;28;20671;-73
2023/01/18 00:25:31;;;;;;;12.10;11.00;;;1.60;99.90;;;;;;5050372;28;20240;-72
2023/01/18 00:27:58;;;;;;;12.05;11.05;;;1.60;99.90;;;;;;5040242;28;20259;-72
2023/01/18 00:30:27;;;;;;;12.20;11.10;;;1.50;99.90;;;;;;5043234;28;20643;-73
2023/01/18 00:32:56;;;;;;;10.45;9.48;;;1.50;99.90;;;;;;5040706;28;20793;-71
2023/01/18 00:35:24;;;;;;;11.77;10.68;;;1.50;99.90;;;;;;5041420;28;20226;-72
2023/01/18 00:37:52;;;;;;;11.63;10.52;;;1.50;99.90;;;;;;5043426;28;20234;-72
2023/01/18 00:40:20;;;;;;;11.23;10.23;;;1.50;99.90;;;;;;5043033;28;20218;-72
2023/01/18 00:45:34;;;;;;;10.68;9.77;;;1.60;99.90;;;;;;5040214;28;20229;-72
2023/01/18 00:48:01;;;;;;;11.25;10.25;;;1.60;99.90;;;;;;5029374;28;20238;-71
2023/01/18 00:50:28;;;;;;;10.43;9.52;;;1.70;99.90;;;;;;5042149;28;20222;-72
2023/01/18 00:52:58;;;;;;;9.60;8.80;;;1.70;99.90;;;;;;5043056;28;20198;-72
2023/01/18 00:55:26;;;;;;;10.55;9.65;;;1.70;99.90;;;;;;5049418;28;20227;-72
2023/01/18 00:57:55;;;;;;;10.75;9.85;;;1.70;99.90;;;;;;5035863;28;20272;-72
2023/01/18 01:00:25;;;;;;;10.82;9.82;;;1.70;99.90;;;;;;5030332;28;20222;-73
2023/01/18 01:02:53;;;;;;;10.75;9.85;;;1.70;99.90;;;;;;5047949;28;20690;-73
2023/01/18 01:08:07;;;;;;;10.05;9.23;;;1.60;99.90;;;;;;5051018;28;20201;-73
2023/01/18 01:10:34;;;;;;;10.13;9.25;;;1.60;99.90;;;;;;5052179;28;20234;-73
2023/01/18 01:26:45;;;;;;;10.63;9.73;;;1.70;99.90;;;;;;5056769;28;20225;-73
2023/01/18 01:29:14;;;;;;;12.27;11.18;;;1.60;99.90;;;;;;5034265;28;20567;-75
2023/01/18 01:31:42;;;;;;;14.55;13.13;;;1.60;99.90;;;;;;5047224;28;20230;-74
2023/01/18 01:34:09;;;;;;;13.55;12.32;;;1.50;99.90;;;;;;5035394;28;20276;-73
2023/01/18 01:36:37;;;;;;;13.25;12.10;;;1.50;99.90;;;;;;5050462;28;20234;-74
2023/01/18 01:39:05;;;;;;;13.32;12.10;;;1.40;99.90;;;;;;5049057;28;20214;-73
2023/01/18 01:41:34;;;;;;;13.20;12.00;;;1.40;99.90;;;;;;5048449;28;20218;-73
2023/01/18 01:44:03;;;;;;;13.60;12.40;;;1.40;99.90;;;;;;5046815;28;20207;-73
2023/01/18 01:46:37;;;;;;;13.02;11.90;;;1.40;99.90;;;;;;5047959;28;20226;-73
2023/01/18 01:49:08;;;;;;;15.90;14.40;;;1.50;99.90;;;;;;5032053;28;20209;-73
2023/01/18 01:51:38;;;;;;;13.57;12.38;;;1.50;99.90;;;;;;5049667;28;20221;-72
2023/01/18 01:54:10;;;;;;;13.70;12.50;;;1.50;99.90;;;;;;5047876;28;20207;-72
2023/01/18 01:56:38;;;;;;;14.07;12.65;;;1.50;99.90;;;;;;5055752;28;20227;-72
2023/01/18 01:59:06;;;;;;;11.30;10.30;;;1.40;99.90;;;;;;5051345;28;20202;-72
2023/01/18 02:01:36;;;;;;;12.32;11.23;;;1.50;99.90;;;;;;5050672;28;20240;-72
2023/01/18 02:04:04;;;;;;;11.48;10.48;;;1.50;99.90;;;;;;5047894;28;20195;-72
2023/01/18 02:06:34;;;;;;;11.93;10.82;;;1.50;99.90;;;;;;5046749;28;20237;-72
2023/01/18 02:09:04;;;;;;;12.45;11.35;;;1.60;99.90;;;;;;5049796;28;20202;-72
2023/01/18 02:11:32;;;;;;;11.63;10.68;;;1.60;99.90;;;;;;5047319;28;20717;-72
2023/01/18 02:14:02;;;;;;;11.30;10.30;;;1.60;99.90;;;;;;5045290;28;20187;-72
2023/01/18 02:16:43;;;;;;;12.20;11.10;;;1.60;99.90;;;;;;5047392;28;20229;-73
2023/01/18 02:19:27;;;;;;;10.60;9.70;;;1.60;99.90;;;;;;5046518;28;20201;-73
2023/01/18 02:21:59;;;;;;;10.50;9.60;;;1.60;99.90;;;;;;5045014;28;20290;-73
2023/01/18 02:25:00;;;;;;;11.18;10.18;;;1.70;99.90;;;;;;5045736;28;20692;-72
2023/01/18 02:27:33;;;;;;;10.90;9.95;;;1.70;99.90;;;;;;5027887;28;20230;-72
2023/01/18 02:30:29;;;;;;;10.95;10.00;;;1.70;99.90;;;;;;5045398;28;20230;-72
2023/01/18 02:33:08;;;;;;;10.52;9.68;;;1.80;99.90;;;;;;5050434;28;20222;-73
2023/01/18 02:35:47;;;;;;;11.52;10.38;;;1.80;99.90;;;;;;5045885;28;20280;-72
2023/01/18 02:38:19;;;;;;;11.73;10.73;;;1.80;99.90;;;;;;5040837;28;20210;-72
2023/01/18 02:41:01;;;;;;;11.80;10.70;;;1.80;99.90;;;;;;5029895;28;20214;-71
2023/01/18 02:46:32;;;;;;;11.38;10.38;;;1.80;99.90;;;;;;5046091;28;20249;-72
2023/01/18 02:49:03;;;;;;;11.18;10.23;;;1.70;99.90;;;;;;5047031;28;20731;-72
2023/01/18 02:51:31;;;;;;;13.38;12.18;;;1.80;99.90;;;;;;5043247;28;20230;-72
2023/01/18 02:53:58;;;;;;;11.38;10.38;;;1.70;99.90;;;;;;5046380;28;20199;-73
2023/01/18 02:56:32;;;;;;;12.13;11.02;;;1.70;99.90;;;;;;5046579;28;20989;-72
2023/01/18 02:59:05;;;;;;;11.75;10.75;;;1.70;99.90;;;;;;5045262;28;20191;-72
2023/01/18 03:01:41;;;;;;;12.77;11.68;;;1.70;99.90;;;;;;5027558;28;20900;-72
2023/01/18 03:04:14;;;;;;;12.68;11.57;;;1.70;99.90;;;;;;5046984;28;20271;-72
2023/01/18 03:06:44;;;;;;;13.65;12.43;;;1.70;99.90;;;;;;5042394;28;20288;-72
2023/01/18 03:09:20;;;;;;;13.95;12.55;;;1.70;99.90;;;;;;5050241;28;20203;-73
2023/01/18 03:11:54;;;;;;;13.65;12.43;;;1.70;99.90;;;;;;5045756;28;20676;-72
2023/01/18 03:14:30;;;;;;;13.48;12.23;;;1.70;99.90;;;;;;5043486;28;20245;-72
2023/01/18 03:17:05;;;;;;;12.27;11.10;;;1.60;99.90;;;;;;5046294;28;20218;-72
2023/01/18 03:25:12;;;;;;;12.07;10.98;;;1.60;99.90;;;;;;5052658;28;21423;-71
2023/01/18 03:36:01;;;;;;;11.73;10.65;;;1.70;99.90;;;;;;5041334;28;20229;-72
2023/01/18 03:38:30;;;;;;;17.85;16.05;;;1.70;99.90;;;;;;5044711;28;20199;-72
2023/01/18 03:41:01;;;;;;;14.85;13.48;;;1.70;99.90;;;;;;5043304;28;20230;-72
2023/01/18 03:43:35;;;;;;;15.15;13.75;;;1.70;99.90;;;;;;5045909;28;20207;-72
2023/01/18 03:46:03;;;;;;;14.02;12.80;;;1.60;99.90;;;;;;5041278;28;20215;-72
2023/01/18 03:48:33;;;;;;;14.80;13.40;;;1.60;99.90;;;;;;5044495;28;20264;-73
2023/01/18 03:51:07;;;;;;;12.70;11.50;;;1.60;99.90;;;;;;5044544;28;20230;-72
2023/01/18 03:53:40;;;;;;;12.43;11.32;;;1.60;99.90;;;;;;5042477;28;20250;-72
2023/01/18 03:56:14;;;;;;;11.45;10.40;;;1.60;99.90;;;;;;5041699;28;20220;-73
2023/01/18 03:58:42;;;;;;;11.93;10.82;;;1.70;99.90;;;;;;5042802;28;20195;-73
2023/01/18 04:01:10;;;;;;;11.77;10.77;;;1.70;99.90;;;;;;5042529;28;20272;-72
2023/01/18 04:03:39;;;;;;;11.07;10.07;;;1.70;99.90;;;;;;5045202;28;20229;-72
2023/01/18 04:06:07;;;;;;;10.68;9.77;;;1.70;99.90;;;;;;5045851;28;20234;-72
2023/01/18 04:08:34;;;;;;;11.25;10.25;;;1.70;99.90;;;;;;5048122;28;20207;-72
2023/01/18 04:11:02;;;;;;;11.60;10.60;;;1.70;99.90;;;;;;5049111;28;20215;-72
2023/01/18 04:13:29;;;;;;;11.80;10.70;;;1.70;99.90;;;;;;5041665;28;20309;-73
2023/01/18 04:15:56;;;;;;;11.05;10.05;;;1.70;99.90;;;;;;5044040;28;20219;-72
2023/01/18 04:18:25;;;;;;;11.15;10.25;;;1.70;99.90;;;;;;5043013;28;20546;-72
2023/01/18 04:20:55;;;;;;;10.57;9.68;;;1.70;99.90;;;;;;5042821;28;20223;-72
2023/01/18 04:23:23;;;;;;;10.48;9.57;;;1.70;99.90;;;;;;5045451;28;20183;-73
2023/01/18 04:25:50;;;;;;;9.35;8.55;;;1.80;99.90;;;;;;5042902;28;20269;-72
2023/01/18 04:28:24;;;;;;;10.15;9.35;;;1.70;99.90;;;;;;5041044;28;20210;-72
2023/01/18 04:30:51;;;;;;;9.60;8.80;;;1.80;99.90;;;;;;5044133;28;20607;-72
2023/01/18 04:33:19;;;;;;;10.52;9.63;;;1.80;99.90;;;;;;5018380;28;20688;-72
2023/01/18 04:35:47;;;;;;;9.60;8.80;;;1.80;99.90;;;;;;5042539;28;20442;-71
2023/01/18 04:38:16;;;;;;;9.93;9.13;;;1.80;99.90;;;;;;5024292;28;20210;-72
2023/01/18 04:40:43;;;;;;;9.20;8.50;;;1.80;99.90;;;;;;5043393;28;20215;-72
2023/01/18 04:43:10;;;;;;;8.20;7.60;;;1.80;99.90;;;;;;5044909;28;20191;-72
2023/01/18 04:45:37;;;;;;;8.57;7.88;;;1.90;99.90;;;;;;5043194;28;20222;-72
2023/01/18 04:48:05;;;;;;;8.23;7.60;;;1.90;99.90;;;;;;5043563;28;20297;-72
2023/01/18 04:50:32;;;;;;;7.78;7.18;;;1.90;99.90;;;;;;5046524;28;20635;-72
2023/01/18 04:52:59;;;;;;;8.93;8.23;;;1.90;99.90;;;;;;5044700;28;20227;-73
2023/01/18 04:55:28;;;;;;;9.93;9.10;;;1.90;99.90;;;;;;5043676;28;20219;-73
2023/01/18 04:57:56;;;;;;;9.32;8.63;;;1.90;99.90;;;;;;5041209;28;20220;-72
2023/01/18 05:00:24;;;;;;;9.55;8.75;;;1.90;99.90;;;;;;5026361;28;20349;-73
2023/01/18 05:02:51;;;;;;;8.43;7.82;;;1.90;99.90;;;;;;5029632;28;20203;-72
2023/01/18 05:05:18;;;;;;;9.60;8.80;;;1.90;99.90;;;;;;5043073;28;20222;-73
2023/01/18 05:07:46;;;;;;;9.65;8.85;;;1.90;99.90;;;;;;5047119;28;20218;-72
2023/01/18 05:10:14;;;;;;;10.77;9.88;;;1.90;99.90;;;;;;5046945;28;20215;-71
2023/01/18 05:12:43;;;;;;;11.88;10.57;;;1.80;99.90;;;;;;5041668;28;20298;-72
2023/01/18 05:15:11;;;;;;;13.30;12.18;;;1.70;99.90;;;;;;5042802;28;20219;-71
2023/01/18 05:17:38;;;;;;;14.07;12.77;;;1.60;99.90;;;;;;5042299;28;20222;-72
2023/01/18 05:20:06;;;;;;;12.13;11.02;;;1.50;99.90;;;;;;5039018;28;20218;-72
2023/01/18 05:22:36;;;;;;;12.57;11.48;;;1.50;99.90;;;;;;5044285;28;20199;-71
2023/01/18 05:25:03;;;;;;;10.77;9.88;;;1.60;99.90;;;;;;5024081;28;20210;-72
2023/01/18 05:27:31;;;;;;;10.43;9.52;;;1.60;99.90;;;;;;5024781;28;20227;-72
2023/01/18 05:30:00;;;;;;;10.70;9.80;;;1.70;99.90;;;;;;5024301;28;20276;-71
2023/01/18 05:32:28;;;;;;;10.73;9.82;;;1.70;99.90;;;;;;5044151;28;20231;-72
2023/01/18 05:34:55;;;;;;;9.80;8.90;;;1.80;99.90;;;;;;5046703;28;20223;-72
2023/01/18 05:37:22;;;;;;;9.82;9.02;;;1.80;99.90;;;;;;5040115;28;20231;-72
2023/01/18 05:39:49;;;;;;;10.10;9.20;;;1.80;99.90;;;;;;5041251;28;20215;-73
2023/01/18 05:42:16;;;;;;;9.85;9.05;;;1.90;99.90;;;;;;5048320;28;20202;-73
2023/01/18 05:44:44;;;;;;;9.25;8.45;;;1.90;99.90;;;;;;5049228;28;20218;-72
2023/01/18 05:47:13;;;;;;;10.13;9.32;;;1.90;99.90;;;;;;5028339;28;20226;-72
2023/01/18 05:49:40;;;;;;;10.10;9.20;;;1.90;99.90;;;;;;5043875;28;20704;-72
2023/01/18 05:52:08;;;;;;;10.90;9.90;;;1.90;99.90;;;;;;5045005;28;20684;-72
2023/01/18 05:54:35;;;;;;;11.15;10.15;;;1.90;99.90;;;;;;5049016;28;20373;-72
2023/01/18 05:57:02;;;;;;;11.05;10.05;;;1.90;99.90;;;;;;5045256;28;20219;-72
2023/01/18 05:59:29;;;;;;;11.10;10.15;;;1.80;99.90;;;;;;5048901;28;20202;-72
2023/01/18 06:01:57;;;;;;;10.80;9.80;;;1.80;99.90;;;;;;5044169;28;20202;-72
2023/01/18 06:04:25;;;;;;;10.90;9.90;;;1.80;99.90;;;;;;5028337;28;20277;-72
2023/01/18 06:06:52;;;;;;;11.80;10.63;;;1.80;99.90;;;;;;5028794;28;20214;-72
2023/01/18 06:09:20;;;;;;;10.45;9.48;;;1.80;99.90;;;;;;5047158;28;20202;-72
2023/01/18 06:11:47;;;;;;;10.60;9.68;;;1.80;99.90;;;;;;5040712;28;20549;-73
2023/01/18 06:14:15;;;;;;;12.13;11.02;;;1.80;99.90;;;;;;5045840;28;20603;-73
2023/01/18 06:16:42;;;;;;;12.27;11.07;;;1.70;99.90;;;;;;5043562;28;20219;-73
2023/01/18 06:19:10;;;;;;;12.07;10.98;;;1.70;99.90;;;;;;5029227;28;20199;-73
2023/01/18 06:21:38;;;;;;;11.65;10.63;;;1.70;99.90;;;;;;5039331;28;20222;-72
2023/01/18 06:24:06;;;;;;;12.30;11.10;;;1.60;99.90;;;;;;5041121;28;20195;-72
2023/01/18 06:26:34;;;;;;;11.38;10.38;;;1.60;99.90;;;;;;5043224;28;20277;-72
2023/01/18 06:29:02;;;;;;;11.88;10.88;;;1.60;99.90;;;;;;5048547;28;20555;-73
2023/01/18 06:31:29;;;;;;;13.32;12.07;;;1.60;99.90;;;;;;5041133;28;20226;-73
2023/01/18 06:33:56;;;;;;;14.00;12.80;;;1.60;99.90;;;;;;5045388;28;20227;-72
2023/01/18 06:36:24;;;;;;;12.82;11.63;;;1.60;99.90;;;;;;5046337;28;20222;-72
2023/01/18 06:38:52;;;;;;;12.48;11.32;;;1.60;99.90;;;;;;5046096;28;20195;-72
2023/01/18 06:41:20;;;;;;;12.57;11.48;;;1.70;99.90;;;;;;5046844;28;20222;-73
2023/01/18 06:43:47;;;;;;;12.40;11.30;;;1.70;99.90;;;;;;5048096;28;20187;-72
2023/01/18 06:46:14;;;;;;;11.27;10.27;;;1.70;99.90;;;;;;5047282;28;20226;-72
2023/01/18 06:48:41;;;;;;;13.63;12.27;;;1.70;99.90;;;;;;5039952;28;20200;-72
2023/01/18 06:51:08;;;;;;;14.00;12.70;;;1.70;99.90;;;;;;5047431;28;20222;-72
2023/01/18 06:53:35;;;;;;;13.68;12.40;;;1.70;99.90;;;;;;5030380;28;20355;-74
2023/01/18 06:56:09;;;;;;;14.75;13.38;;;1.70;99.90;;;;;;5046209;28;20638;-72
2023/01/18 06:58:36;;;;;;;13.80;12.45;;;1.70;99.90;;;;;;5047567;28;20728;-73
2023/01/18 07:01:04;;;;;;;13.43;12.23;;;1.60;99.90;;;;;;5042728;28;20219;-73
2023/01/18 07:03:32;;;;;;;12.70;11.50;;;1.60;99.90;;;;;;5047213;28;20260;-73
2023/01/18 07:06:02;;;;;;;13.88;12.57;;;1.60;99.90;;;;;;5043932;28;20718;-73
2023/01/18 07:08:30;;;;;;;13.00;11.80;;;1.60;99.90;;;;;;5046831;28;20199;-73
2023/01/18 07:10:58;;;;;;;14.48;13.10;;;1.60;99.90;;;;;;5043041;28;20318;-73
2023/01/18 07:13:27;;;;;;;15.70;14.07;;;1.60;99.90;;;;;;5046289;28;20775;-73
2023/01/18 07:15:57;;;;;;;14.80;13.30;;;1.60;99.90;;;;;;5044109;28;20601;-71
2023/01/18 07:18:25;;;;;;;15.57;13.95;;;1.60;99.90;;;;;;5025974;28;20256;-71
2023/01/18 07:20:59;;;;;;;14.93;13.43;;;1.60;99.90;;;;;;5039105;28;20218;-72
2023/01/18 07:23:27;;;;;;;13.43;12.13;;;1.60;99.90;;;;;;5044950;28;20206;-73
2023/01/18 07:26:01;;;;;;;25.58;17.92;;;1.60;99.90;;;;;;5045823;28;20269;-73
2023/01/18 07:28:30;;;;;;;17.90;16.00;;;1.60;99.90;;;;;;5046816;28;20221;-72
2023/01/18 07:30:58;;;;;;;15.23;13.82;;;1.60;99.90;;;;;;5040600;28;20288;-72
2023/01/18 07:33:25;;;;;;;15.32;13.90;;;1.60;99.90;;;;;;5028196;28;20295;-73
2023/01/18 07:35:53;;;;;;;17.38;15.68;;;1.80;99.90;;;;;;5042471;28;20222;-73
2023/01/18 07:38:20;;;;;;;17.10;15.35;;;2.00;99.90;;;;;;5043758;28;20207;-73
2023/01/18 07:40:48;;;;;;;15.82;14.23;;;2.10;99.90;;;;;;5040995;28;20227;-73
2023/01/18 07:43:16;;;;;;;15.57;14.05;;;2.20;99.90;;;;;;5043972;28;20599;-73
2023/01/18 07:45:53;;;;;;;15.27;13.82;;;2.30;99.90;;;;;;5043808;28;20264;-73
2023/01/18 07:48:20;;;;;;;14.05;12.75;;;2.40;99.90;;;;;;5035633;28;20296;-75
2023/01/18 07:50:53;;;;;;;13.65;12.35;;;2.50;99.90;;;;;;5032853;28;20211;-73
2023/01/18 07:53:20;;;;;;;14.48;13.02;;;2.60;99.90;;;;;;5035357;28;20306;-73
2023/01/18 07:55:47;;;;;;;14.07;12.88;;;2.60;99.90;;;;;;5030379;28;20288;-74
2023/01/18 07:58:15;;;;;;;15.07;13.68;;;2.60;99.90;;;;;;5042306;28;20191;-72
2023/01/18 08:00:44;;;;;;;15.10;13.70;;;2.60;99.90;;;;;;5041452;28;20219;-74
2023/01/18 08:03:13;;;;;;;15.10;13.75;;;2.70;99.90;;;;;;5049324;28;20191;-72
2023/01/18 08:05:41;;;;;;;15.38;13.88;;;2.70;99.90;;;;;;5024471;28;20237;-72
2023/01/18 08:08:09;;;;;;;14.93;13.52;;;2.70;99.90;;;;;;5038734;28;20283;-73
2023/01/18 08:10:37;;;;;;;15.20;13.80;;;2.80;99.90;;;;;;5036580;28;20317;-73
2023/01/18 08:13:05;;;;;;;16.85;15.25;;;2.90;99.90;;;;;;5040689;28;20215;-74
2023/01/18 08:15:33;;;;;;;18.10;16.35;;;3.00;99.90;;;;;;5021348;28;20232;-75
2023/01/18 08:18:04;;;;;;;17.90;16.17;;;3.10;99.90;;;;;;5028418;28;20226;-74
2023/01/18 08:20:32;;;;;;;18.08;16.35;;;3.10;99.90;;;;;;5041619;28;20230;-74
2023/01/18 08:23:00;;;;;;;17.80;16.10;;;3.00;99.90;;;;;;5037756;28;20211;-74
2023/01/18 08:25:30;;;;;;;18.48;16.58;;;3.00;99.90;;;;;;5035709;28;20215;-73
2023/01/18 08:27:58;;;;;;;17.05;15.45;;;3.10;99.90;;;;;;5043067;28;20221;-73
2023/01/18 08:30:27;;;;;;;17.00;15.40;;;3.10;99.90;;;;;;5037407;28;20237;-73
2023/01/18 08:32:56;;;;;;;16.80;15.20;;;3.10;99.90;;;;;;5036576;28;20276;-73
2023/01/18 08:35:26;;;;;;;17.48;15.73;;;3.00;99.90;;;;;;5040462;28;20226;-73
2023/01/18 08:37:54;;;;;;;17.45;15.85;;;3.00;99.90;;;;;;5024152;28;20244;-73
2023/01/18 08:40:23;;;;;;;17.88;16.08;;;2.90;99.90;;;;;;5039525;28;20772;-73
2023/01/18 08:42:51;;;;;;;18.42;16.65;;;2.90;99.90;;;;;;5040106;28;20660;-73
2023/01/18 08:45:18;;;;;;;16.75;15.15;;;2.90;99.90;;;;;;5035612;28;20785;-73
2023/01/18 08:47:45;;;;;;;17.02;15.32;;;2.90;99.90;;;;;;5039837;28;20829;-73
2023/01/18 08:50:13;;;;;;;15.52;14.02;;;2.90;99.90;;;;;;5036512;28;20218;-73
2023/01/18 08:52:42;;;;;;;17.30;15.60;;;3.00;99.90;;;;;;5019426;28;20244;-73
2023/01/18 08:55:10;;;;;;;17.27;15.63;;;3.00;99.90;;;;;;5039783;28;20222;-73
2023/01/18 08:57:37;;;;;;;16.50;15.00;;;2.90;99.90;;;;;;5036075;28;20755;-73
2023/01/18 09:00:05;;;;;;;16.60;15.05;;;2.90;99.90;;;;;;5037809;28;20222;-72
2023/01/18 09:02:32;;;;;;;16.95;15.35;;;3.00;99.90;;;;;;5041336;28;20676;-73
2023/01/18 09:04:59;;;;;;;15.45;13.95;;;3.10;99.90;;;;;;5038549;28;20215;-73
2023/01/18 09:07:26;;;;;;;16.17;14.55;;;3.10;99.90;;;;;;5039230;28;20231;-74
2023/01/18 09:09:55;;;;;;;16.25;14.75;;;3.20;99.90;;;;;;5040735;28;20219;-73
2023/01/18 09:12:23;;;;;;;16.10;14.68;;;3.20;99.90;;;;;;5036639;28;20550;-73
2023/01/18 09:14:50;;;;;;;15.10;13.80;;;3.30;99.90;;;;;;5037917;28;20283;-73
2023/01/18 09:17:18;;;;;;;16.55;15.02;;;3.50;99.90;;;;;;5021930;28;20718;-73
2023/01/18 09:19:46;;;;;;;22.05;19.85;;;3.90;99.90;;;;;;5042253;28;20769;-73
2023/01/18 09:22:13;;;;;;;19.30;17.42;;;4.30;99.90;;;;;;5041627;28;20277;-73
2023/01/18 09:24:41;;;;;;;18.25;16.63;;;5.00;99.90;;;;;;5045261;28;20245;-73
2023/01/18 09:27:12;;;;;;;15.23;13.93;;;6.20;99.90;;;;;;5040766;28;20264;-73
2023/01/18 09:29:39;;;;;;;14.13;12.77;;;7.50;99.90;;;;;;5043090;28;20777;-73
2023/01/18 09:32:08;;;;;;;12.70;11.60;;;8.70;99.90;;;;;;5043028;28;20198;-73
2023/01/18 09:34:35;;;;;;;11.00;10.10;;;10.80;99.90;;;;;;5027582;28;20741;-73
2023/01/18 09:37:02;;;;;;;13.20;12.00;;;10.70;99.90;;;;;;5045532;28;20789;-73
2023/01/18 09:39:30;;;;;;;14.48;13.18;;;10.00;99.90;;;;;;5039065;28;20629;-73
2023/01/18 09:42:01;;;;;;;13.88;12.68;;;10.40;99.90;;;;;;5043440;28;20271;-73
2023/01/18 09:44:33;;;;;;;13.07;11.88;;;11.50;99.90;;;;;;5045753;28;20199;-73
2023/01/18 09:47:04;;;;;;;12.50;11.45;;;13.60;99.90;;;;;;5040789;28;20638;-73
2023/01/18 09:49:37;;;;;;;11.20;10.20;;;14.90;99.90;;;;;;5043267;28;20288;-73
2023/01/18 09:52:21;;;;;;;11.32;10.25;;;16.10;99.90;;;;;;5042815;28;20215;-73
2023/01/18 09:54:54;;;;;;;10.27;9.43;;;16.60;99.90;;;;;;5039364;28;20662;-73
2023/01/18 09:57:34;;;;;;;9.18;8.38;;;16.60;99.90;;;;;;5044973;28;20624;-73
2023/01/18 10:00:04;;;;;;;10.02;9.23;;;16.40;99.90;;;;;;5023679;28;20215;-73
2023/01/18 10:02:38;;;;;;;8.95;8.15;;;15.60;99.90;;;;;;5040465;28;20256;-74
2023/01/18 10:05:09;;;;;;;9.38;8.68;;;14.70;99.90;;;;;;5041286;28;20487;-73
2023/01/18 10:07:47;;;;;;;9.32;8.52;;;13.70;99.90;;;;;;5043605;28;20215;-73
2023/01/18 10:10:17;;;;;;;8.98;8.27;;;13.00;99.90;;;;;;5040832;28;20218;-73
2023/01/18 10:12:51;;;;;;;9.68;8.88;;;12.20;99.90;;;;;;5043224;28;20195;-73
2023/01/18 10:15:23;;;;;;;11.02;10.02;;;11.60;99.90;;;;;;5043211;28;20222;-74
2023/01/18 10:17:55;;;;;;;10.45;9.45;;;11.20;99.90;;;;;;5038775;28;20223;-74
2023/01/18 10:20:33;;;;;;;9.73;8.93;;;10.90;99.90;;;;;;5041595;28;20215;-73
2023/01/18 10:23:04;;;;;;;10.20;9.20;;;10.90;99.90;;;;;;5041350;28;20246;-74
2023/01/18 10:25:36;;;;;;;9.07;8.30;;;10.90;99.90;;;;;;5043642;28;20226;-73
2023/01/18 10:28:24;;;;;;;10.38;9.48;;;10.80;99.90;;;;;;5022704;28;20219;-73
2023/01/18 10:31:02;;;;;;;10.25;9.35;;;11.00;99.90;;;;;;5043577;28;20226;-74
2023/01/18 10:33:34;;;;;;;9.48;8.68;;;10.90;99.90;;;;;;5039811;28;20195;-74
2023/01/18 10:36:07;;;;;;;10.43;9.50;;;10.70;99.90;;;;;;5043383;28;20277;-74
2023/01/18 10:38:39;;;;;;;10.15;9.15;;;10.70;99.90;;;;;;5044507;28;20871;-73
2023/01/18 10:41:17;;;;;;;11.05;9.98;;;11.10;99.90;;;;;;5034783;28;20224;-73
2023/01/18 10:43:45;;;;;;;12.40;11.15;;;10.90;99.90;;;;;;5042712;28;20194;-73
2023/01/18 10:46:17;;;;;;;11.32;10.25;;;11.40;99.90;;;;;;5023115;28;20795;-74
2023/01/18 10:48:46;;;;;;;10.73;9.75;;;11.30;99.90;;;;;;5044019;28;20203;-73
2023/01/18 10:51:30;;;;;;;10.45;9.55;;;11.10;99.90;;;;;;5038952;28;20227;-74
2023/01/18 10:53:58;;;;;;;9.80;8.95;;;11.00;99.90;;;;;;5045036;28;20317;-73
2023/01/18 10:56:28;;;;;;;9.27;8.48;;;10.50;99.90;;;;;;5023106;28;20234;-73
2023/01/18 10:58:58;;;;;;;9.88;9.07;;;10.20;99.90;;;;;;5042643;28;20199;-73
2023/01/18 11:01:28;;;;;;;10.55;9.65;;;9.90;99.90;;;;;;5039237;28;20219;-73
2023/01/18 11:04:03;;;;;;;11.88;10.77;;;9.40;99.90;;;;;;5024263;28;20199;-74
2023/01/18 11:06:30;;;;;;;11.45;10.35;;;8.90;99.90;;;;;;5045275;28;20660;-74
2023/01/18 11:08:58;;;;;;;11.27;10.27;;;8.50;99.90;;;;;;5050954;28;20677;-74
2023/01/18 11:14:24;;;;;;;11.65;10.65;;;8.10;99.90;;;;;;5041516;28;20305;-74
2023/01/18 11:17:01;;;;;;;12.90;11.80;;;8.10;99.90;;;;;;5038858;28;20703;-74
2023/01/18 11:19:28;;;;;;;12.90;11.82;;;7.90;99.90;;;;;;5041547;28;20195;-74
2023/01/18 11:21:55;;;;;;;11.85;10.82;;;7.70;99.90;;;;;;5043629;28;20229;-74
2023/01/18 11:24:26;;;;;;;12.13;11.05;;;7.50;99.90;;;;;;5040616;28;20207;-74
2023/01/18 11:26:59;;;;;;;12.02;10.93;;;7.40;99.90;;;;;;5039470;28;20226;-74
2023/01/18 11:29:29;;;;;;;10.60;9.70;;;7.20;99.90;;;;;;5039725;28;20285;-73
2023/01/18 11:32:05;;;;;;;10.48;9.57;;;7.00;99.90;;;;;;5035716;28;20287;-74
2023/01/18 11:34:35;;;;;;;11.35;10.35;;;6.80;99.90;;;;;;5042129;28;20940;-74
2023/01/18 11:37:03;;;;;;;10.15;9.32;;;6.80;99.90;;;;;;5041336;28;20227;-74
2023/01/18 11:39:33;;;;;;;11.38;10.38;;;6.80;99.90;;;;;;5040525;28;20965;-74
2023/01/18 11:42:21;;;;;;;10.13;9.15;;;6.90;99.90;;;;;;5042926;28;20199;-74
2023/01/18 11:44:59;;;;;;;10.15;9.35;;;6.90;99.90;;;;;;5039343;28;20277;-74
2023/01/18 11:47:32;;;;;;;9.80;9.00;;;7.10;99.90;;;;;;5042529;28;20226;-74
2023/01/18 11:50:04;;;;;;;10.85;9.95;;;7.40;99.90;;;;;;5042780;28;20309;-74
2023/01/18 11:52:42;;;;;;;10.25;9.25;;;7.10;99.90;;;;;;5043655;28;20264;-74
2023/01/18 11:55:22;;;;;;;10.13;9.23;;;7.10;99.90;;;;;;5038651;28;20298;-74
2023/01/18 11:57:50;;;;;;;10.07;9.27;;;7.20;99.90;;;;;;5041606;28;20214;-74
2023/01/18 12:00:27;;;;;;;9.98;9.18;;;7.20;99.90;;;;;;5040102;28;20607;-73
2023/01/18 12:03:22;;;;;;;9.25;8.55;;;7.10;99.90;;;;;;5051061;28;20207;-73
2023/01/18 12:05:55;;;;;;;9.55;8.75;;;6.80;99.90;;;;;;5044185;28;20231;-73
2023/01/18 12:08:47;;;;;;;9.90;9.00;;;7.00;99.90;;;;;;5042687;28;20206;-75
2023/01/18 12:11:48;;;;;;;10.15;9.25;;;7.90;99.90;;;;;;5024995;28;20223;-74
2023/01/18 12:14:34;;;;;;;11.70;10.73;;;8.50;99.90;;;;;;5041008;28;20297;-74
2023/01/18 12:17:27;;;;;;;11.30;10.30;;;8.50;99.90;;;;;;5041604;28;20226;-73
2023/01/18 12:20:21;;;;;;;10.32;9.48;;;8.80;99.90;;;;;;5037706;28;20220;-74
2023/01/18 12:23:07;;;;;;;10.07;9.25;;;9.40;99.90;;;;;;5021432;28;20252;-74
2023/01/18 12:25:48;;;;;;;9.45;8.65;;;9.80;99.90;;;;;;5040303;28;20283;-74
2023/01/18 12:28:30;;;;;;;10.07;9.18;;;10.10;99.90;;;;;;5040131;28;20562;-74
2023/01/18 12:31:07;;;;;;;8.82;8.07;;;10.00;99.90;;;;;;5037697;28;20214;-74
2023/01/18 12:33:45;;;;;;;10.13;9.32;;;9.50;99.90;;;;;;5042941;28;20665;-74
2023/01/18 12:36:28;;;;;;;9.93;9.13;;;9.10;99.90;;;;;;5036180;28;20230;-74
2023/01/18 12:38:57;;;;;;;10.00;9.00;;;8.70;99.90;;;;;;5042014;28;20895;-75
2023/01/18 12:41:38;;;;;;;10.48;9.55;;;8.00;99.90;;;;;;5022879;28;20360;-75
2023/01/18 12:44:43;;;;;;;12.73;11.63;;;7.40;99.90;;;;;;5021265;28;20248;-74
2023/01/18 12:47:33;;;;;;;11.18;10.27;;;7.20;99.90;;;;;;5029417;28;20650;-75
2023/01/18 12:50:05;;;;;;;12.15;11.05;;;7.20;99.90;;;;;;5039489;28;20222;-74
2023/01/18 12:52:41;;;;;;;9.93;9.13;;;7.30;99.90;;;;;;5023122;28;20289;-75
2023/01/18 12:55:16;;;;;;;12.32;11.23;;;7.60;99.90;;;;;;5022591;28;20225;-74
2023/01/18 12:57:47;;;;;;;10.93;9.95;;;7.70;99.90;;;;;;5024366;28;20214;-74
2023/01/18 13:00:20;;;;;;;10.65;9.75;;;7.80;99.90;;;;;;5037601;28;20600;-74
2023/01/18 13:02:50;;;;;;;10.25;9.35;;;7.70;99.90;;;;;;5023384;28;20194;-74
2023/01/18 13:05:23;;;;;;;10.75;9.85;;;7.60;99.90;;;;;;5036670;28;20225;-75
2023/01/18 13:07:59;;;;;;;9.93;9.13;;;7.50;99.90;;;;;;5042455;28;20301;-74
2023/01/18 13:10:28;;;;;;;9.27;8.57;;;7.90;99.90;;;;;;5038760;28;20218;-74
2023/01/18 13:12:57;;;;;;;10.63;9.75;;;7.90;99.90;;;;;;5023540;28;20683;-73
2023/01/18 13:15:33;;;;;;;10.57;9.68;;;8.00;99.90;;;;;;5039576;28;20226;-73
2023/01/18 13:18:08;;;;;;;10.05;9.25;;;8.10;99.90;;;;;;5039031;28;20229;-73
2023/01/18 13:20:58;;;;;;;9.60;8.70;;;8.20;99.90;;;;;;5022761;28;20231;-74
2023/01/18 13:23:37;;;;;;;9.13;8.43;;;8.20;99.90;;;;;;5040411;28;20229;-74
2023/01/18 13:26:19;;;;;;;9.27;8.48;;;8.20;99.90;;;;;;5040628;28;20622;-74
2023/01/18 13:28:47;;;;;;;9.00;8.27;;;7.90;99.90;;;;;;5039891;28;20265;-73
2023/01/18 13:31:14;;;;;;;9.60;8.80;;;7.90;99.90;;;;;;5038498;28;20906;-74
2023/01/18 13:33:44;;;;;;;10.38;9.55;;;8.10;99.90;;;;;;5040281;28;20199;-73
2023/01/18 13:36:14;;;;;;;9.05;8.32;;;8.30;99.90;;;;;;5040273;28;20348;-73
2023/01/18 13:38:52;;;;;;;9.73;8.93;;;8.20;99.90;;;;;;5038483;28;20199;-73